sensor_id;sensor_type;location;lat;lon;timestamp;P1;durP1;ratioP1;P2;durP2;ratioP2
23230;SDS011;11784;49.818;8.632;2023-02-28T00:00:19;0.60;;;0.55;;
23230;SDS011;11784;49.818;8.632;2023-02-28T00:02:45;0.85;;;0.47;;
23230;SDS011;11784;49.818;8.632;2023-02-28T00:05:12;0.68;;;0.40;;
23230;SDS011;11784;49.818;8.632;2023-02-28T00:07:39;0.60;;;0.50;;
23230;SDS011;11784;49.818;8.632;2023-02-28T00:10:07;1.83;;;0.88;;
23230;SDS011;11784;49.818;8.632;2023-02-28T00:12:34;0.70;;;0.60;;
23230;SDS011;11784;49.818;8.632;2023-02-28T00:15:01;0.40;;;0.40;;
23230;SDS011;11784;49.818;8.632;2023-02-28T00:17:27;0.80;;;0.63;;
23230;SDS011;11784;49.818;8.632;2023-02-28T00:19:53;0.70;;;0.70;;
23230;SDS011;11784;49.818;8.632;2023-02-28T00:22:19;1.10;;;0.73;;
23230;SDS011;11784;49.818;8.632;2023-02-28T00:24:46;0.73;;;0.60;;
23230;SDS011;11784;49.818;8.632;2023-02-28T00:27:12;0.40;;;0.30;;
23230;SDS011;11784;49.818;8.632;2023-02-28T00:29:38;0.75;;;0.63;;
23230;SDS011;11784;49.818;8.632;2023-02-28T00:32:07;0.52;;;0.40;;
23230;SDS011;11784;49.818;8.632;2023-02-28T00:34:32;2.17;;;0.60;;
23230;SDS011;11784;49.818;8.632;2023-02-28T00:37:03;0.57;;;0.55;;
23230;SDS011;11784;49.818;8.632;2023-02-28T00:39:34;1.13;;;0.65;;
23230;SDS011;11784;49.818;8.632;2023-02-28T00:42:00;0.43;;;0.40;;
23230;SDS011;11784;49.818;8.632;2023-02-28T00:44:26;0.43;;;0.40;;
23230;SDS011;11784;49.818;8.632;2023-02-28T00:46:52;0.75;;;0.43;;
23230;SDS011;11784;49.818;8.632;2023-02-28T00:49:19;3.28;;;0.68;;
23230;SDS011;11784;49.818;8.632;2023-02-28T00:51:45;0.50;;;0.50;;
23230;SDS011;11784;49.818;8.632;2023-02-28T00:54:11;1.10;;;0.68;;
23230;SDS011;11784;49.818;8.632;2023-02-28T00:56:36;0.52;;;0.40;;
23230;SDS011;11784;49.818;8.632;2023-02-28T00:59:02;0.50;;;0.50;;
23230;SDS011;11784;49.818;8.632;2023-02-28T01:01:27;1.58;;;0.98;;
23230;SDS011;11784;49.818;8.632;2023-02-28T01:03:53;0.52;;;0.50;;
23230;SDS011;11784;49.818;8.632;2023-02-28T01:06:18;0.88;;;0.70;;
23230;SDS011;11784;49.818;8.632;2023-02-28T01:08:44;0.40;;;0.40;;
23230;SDS011;11784;49.818;8.632;2023-02-28T01:11:10;0.47;;;0.47;;
23230;SDS011;11784;49.818;8.632;2023-02-28T01:13:37;0.60;;;0.40;;
23230;SDS011;11784;49.818;8.632;2023-02-28T01:16:02;0.30;;;0.30;;
23230;SDS011;11784;49.818;8.632;2023-02-28T01:18:28;0.30;;;0.30;;
23230;SDS011;11784;49.818;8.632;2023-02-28T01:20:54;0.60;;;0.60;;
23230;SDS011;11784;49.818;8.632;2023-02-28T01:23:20;0.60;;;0.50;;
23230;SDS011;11784;49.818;8.632;2023-02-28T01:25:48;0.40;;;0.40;;
23230;SDS011;11784;49.818;8.632;2023-02-28T01:28:14;0.50;;;0.40;;
23230;SDS011;11784;49.818;8.632;2023-02-28T01:30:40;1.13;;;0.60;;
23230;SDS011;11784;49.818;8.632;2023-02-28T01:33:06;0.40;;;0.40;;
23230;SDS011;11784;49.818;8.632;2023-02-28T01:35:32;0.60;;;0.60;;
23230;SDS011;11784;49.818;8.632;2023-02-28T01:37:58;0.95;;;0.60;;
23230;SDS011;11784;49.818;8.632;2023-02-28T01:40:24;2.33;;;0.85;;
23230;SDS011;11784;49.818;8.632;2023-02-28T01:42:49;0.82;;;0.63;;
23230;SDS011;11784;49.818;8.632;2023-02-28T01:47:50;0.40;;;0.40;;
23230;SDS011;11784;49.818;8.632;2023-02-28T01:50:20;0.40;;;0.40;;
23230;SDS011;11784;49.818;8.632;2023-02-28T01:52:49;0.30;;;0.30;;
23230;SDS011;11784;49.818;8.632;2023-02-28T01:55:16;0.85;;;0.60;;
23230;SDS011;11784;49.818;8.632;2023-02-28T01:57:52;1.75;;;0.68;;
23230;SDS011;11784;49.818;8.632;2023-02-28T02:00:22;1.85;;;0.50;;
23230;SDS011;11784;49.818;8.632;2023-02-28T02:02:52;1.17;;;0.47;;
23230;SDS011;11784;49.818;8.632;2023-02-28T02:05:21;1.45;;;0.50;;
23230;SDS011;11784;49.818;8.632;2023-02-28T02:07:50;0.70;;;0.70;;
23230;SDS011;11784;49.818;8.632;2023-02-28T02:10:22;1.05;;;0.50;;
23230;SDS011;11784;49.818;8.632;2023-02-28T02:13:19;0.75;;;0.40;;
23230;SDS011;11784;49.818;8.632;2023-02-28T02:21:24;0.45;;;0.40;;
23230;SDS011;11784;49.818;8.632;2023-02-28T02:29:47;1.00;;;0.70;;
23230;SDS011;11784;49.818;8.632;2023-02-28T02:37:48;0.40;;;0.40;;
23230;SDS011;11784;49.818;8.632;2023-02-28T02:40:25;1.40;;;0.70;;
23230;SDS011;11784;49.818;8.632;2023-02-28T02:43:16;0.90;;;0.75;;
23230;SDS011;11784;49.818;8.632;2023-02-28T02:45:52;0.50;;;0.50;;
23230;SDS011;11784;49.818;8.632;2023-02-28T02:48:24;1.20;;;0.63;;
23230;SDS011;11784;49.818;8.632;2023-02-28T02:50:57;0.90;;;0.82;;
23230;SDS011;11784;49.818;8.632;2023-02-28T02:53:33;1.27;;;0.73;;
23230;SDS011;11784;49.818;8.632;2023-02-28T02:56:02;1.05;;;0.60;;
23230;SDS011;11784;49.818;8.632;2023-02-28T02:58:31;1.30;;;0.60;;
23230;SDS011;11784;49.818;8.632;2023-02-28T03:01:01;0.50;;;0.50;;
23230;SDS011;11784;49.818;8.632;2023-02-28T03:03:29;0.93;;;0.70;;
23230;SDS011;11784;49.818;8.632;2023-02-28T03:05:58;1.45;;;1.08;;
23230;SDS011;11784;49.818;8.632;2023-02-28T03:08:25;1.52;;;0.52;;
23230;SDS011;11784;49.818;8.632;2023-02-28T03:10:52;0.90;;;0.77;;
23230;SDS011;11784;49.818;8.632;2023-02-28T03:19:23;1.35;;;0.73;;
23230;SDS011;11784;49.818;8.632;2023-02-28T03:22:15;0.75;;;0.60;;
23230;SDS011;11784;49.818;8.632;2023-02-28T03:24:45;0.65;;;0.57;;
23230;SDS011;11784;49.818;8.632;2023-02-28T03:27:21;1.55;;;0.70;;
23230;SDS011;11784;49.818;8.632;2023-02-28T03:32:28;1.20;;;0.75;;
23230;SDS011;11784;49.818;8.632;2023-02-28T03:35:13;1.90;;;0.70;;
23230;SDS011;11784;49.818;8.632;2023-02-28T03:37:46;0.73;;;0.45;;
23230;SDS011;11784;49.818;8.632;2023-02-28T03:40:16;0.75;;;0.70;;
23230;SDS011;11784;49.818;8.632;2023-02-28T03:42:45;0.57;;;0.52;;
23230;SDS011;11784;49.818;8.632;2023-02-28T03:45:21;1.17;;;0.50;;
23230;SDS011;11784;49.818;8.632;2023-02-28T03:47:52;0.52;;;0.50;;
23230;SDS011;11784;49.818;8.632;2023-02-28T03:50:27;0.63;;;0.52;;
23230;SDS011;11784;49.818;8.632;2023-02-28T03:53:01;0.83;;;0.60;;
23230;SDS011;11784;49.818;8.632;2023-02-28T03:55:37;2.08;;;0.65;;
23230;SDS011;11784;49.818;8.632;2023-02-28T03:58:20;1.05;;;0.80;;
23230;SDS011;11784;49.818;8.632;2023-02-28T04:01:12;1.40;;;0.70;;
23230;SDS011;11784;49.818;8.632;2023-02-28T04:03:43;0.63;;;0.63;;
23230;SDS011;11784;49.818;8.632;2023-02-28T04:06:13;0.40;;;0.40;;
23230;SDS011;11784;49.818;8.632;2023-02-28T04:08:41;0.47;;;0.45;;
23230;SDS011;11784;49.818;8.632;2023-02-28T04:11:11;1.25;;;0.60;;
23230;SDS011;11784;49.818;8.632;2023-02-28T04:13:47;0.63;;;0.63;;
23230;SDS011;11784;49.818;8.632;2023-02-28T04:16:13;1.30;;;0.80;;
23230;SDS011;11784;49.818;8.632;2023-02-28T04:18:39;0.95;;;0.60;;
23230;SDS011;11784;49.818;8.632;2023-02-28T04:21:05;0.50;;;0.50;;
23230;SDS011;11784;49.818;8.632;2023-02-28T04:23:32;0.60;;;0.60;;
23230;SDS011;11784;49.818;8.632;2023-02-28T04:25:58;1.70;;;0.85;;
23230;SDS011;11784;49.818;8.632;2023-02-28T04:28:23;0.98;;;0.60;;
23230;SDS011;11784;49.818;8.632;2023-02-28T04:31:00;0.68;;;0.60;;
23230;SDS011;11784;49.818;8.632;2023-02-28T04:33:28;0.82;;;0.50;;
23230;SDS011;11784;49.818;8.632;2023-02-28T04:36:03;1.02;;;1.00;;
23230;SDS011;11784;49.818;8.632;2023-02-28T04:38:32;1.05;;;0.70;;
23230;SDS011;11784;49.818;8.632;2023-02-28T04:40:59;1.90;;;1.20;;
23230;SDS011;11784;49.818;8.632;2023-02-28T04:43:28;0.63;;;0.63;;
23230;SDS011;11784;49.818;8.632;2023-02-28T04:45:55;1.58;;;1.00;;
23230;SDS011;11784;49.818;8.632;2023-02-28T04:48:25;3.00;;;0.75;;
23230;SDS011;11784;49.818;8.632;2023-02-28T04:50:53;0.85;;;0.80;;
23230;SDS011;11784;49.818;8.632;2023-02-28T04:53:18;2.03;;;0.85;;
23230;SDS011;11784;49.818;8.632;2023-02-28T04:55:44;0.90;;;0.70;;
23230;SDS011;11784;49.818;8.632;2023-02-28T04:58:10;0.77;;;0.77;;
23230;SDS011;11784;49.818;8.632;2023-02-28T05:00:36;1.08;;;0.95;;
23230;SDS011;11784;49.818;8.632;2023-02-28T05:03:02;1.25;;;0.80;;
23230;SDS011;11784;49.818;8.632;2023-02-28T05:05:28;1.38;;;0.80;;
23230;SDS011;11784;49.818;8.632;2023-02-28T05:07:53;1.08;;;0.80;;
23230;SDS011;11784;49.818;8.632;2023-02-28T05:10:20;0.93;;;0.70;;
23230;SDS011;11784;49.818;8.632;2023-02-28T05:12:46;2.38;;;0.90;;
23230;SDS011;11784;49.818;8.632;2023-02-28T05:15:13;4.57;;;2.00;;
23230;SDS011;11784;49.818;8.632;2023-02-28T05:17:39;0.60;;;0.60;;
23230;SDS011;11784;49.818;8.632;2023-02-28T05:20:06;0.68;;;0.60;;
23230;SDS011;11784;49.818;8.632;2023-02-28T05:22:33;1.05;;;0.95;;
23230;SDS011;11784;49.818;8.632;2023-02-28T05:24:59;0.98;;;0.70;;
23230;SDS011;11784;49.818;8.632;2023-02-28T05:27:24;1.60;;;0.73;;
23230;SDS011;11784;49.818;8.632;2023-02-28T05:29:50;0.60;;;0.60;;
23230;SDS011;11784;49.818;8.632;2023-02-28T05:32:15;2.53;;;0.80;;
23230;SDS011;11784;49.818;8.632;2023-02-28T05:34:41;2.58;;;1.10;;
23230;SDS011;11784;49.818;8.632;2023-02-28T05:37:11;1.38;;;0.77;;
23230;SDS011;11784;49.818;8.632;2023-02-28T05:39:37;1.02;;;0.68;;
23230;SDS011;11784;49.818;8.632;2023-02-28T05:42:03;0.80;;;0.80;;
23230;SDS011;11784;49.818;8.632;2023-02-28T05:44:29;3.03;;;1.38;;
23230;SDS011;11784;49.818;8.632;2023-02-28T05:46:55;0.75;;;0.70;;
23230;SDS011;11784;49.818;8.632;2023-02-28T05:49:20;1.10;;;0.88;;
23230;SDS011;11784;49.818;8.632;2023-02-28T05:51:46;1.63;;;0.80;;
23230;SDS011;11784;49.818;8.632;2023-02-28T05:54:12;0.90;;;0.80;;
23230;SDS011;11784;49.818;8.632;2023-02-28T05:56:37;1.48;;;0.60;;
23230;SDS011;11784;49.818;8.632;2023-02-28T05:59:04;1.63;;;0.80;;
23230;SDS011;11784;49.818;8.632;2023-02-28T06:01:34;1.77;;;1.00;;
23230;SDS011;11784;49.818;8.632;2023-02-28T06:04:02;1.08;;;0.98;;
23230;SDS011;11784;49.818;8.632;2023-02-28T06:06:29;1.80;;;0.90;;
23230;SDS011;11784;49.818;8.632;2023-02-28T06:08:55;2.70;;;1.20;;
23230;SDS011;11784;49.818;8.632;2023-02-28T06:11:21;1.40;;;0.98;;
23230;SDS011;11784;49.818;8.632;2023-02-28T06:13:52;1.33;;;0.95;;
23230;SDS011;11784;49.818;8.632;2023-02-28T06:16:22;1.67;;;1.05;;
23230;SDS011;11784;49.818;8.632;2023-02-28T06:18:48;0.65;;;0.65;;
23230;SDS011;11784;49.818;8.632;2023-02-28T06:21:14;1.95;;;0.82;;
23230;SDS011;11784;49.818;8.632;2023-02-28T06:23:40;2.00;;;0.88;;
23230;SDS011;11784;49.818;8.632;2023-02-28T06:26:05;1.63;;;0.60;;
23230;SDS011;11784;49.818;8.632;2023-02-28T06:28:31;0.75;;;0.75;;
23230;SDS011;11784;49.818;8.632;2023-02-28T06:30:57;0.55;;;0.50;;
23230;SDS011;11784;49.818;8.632;2023-02-28T06:33:22;1.58;;;0.85;;
23230;SDS011;11784;49.818;8.632;2023-02-28T06:35:51;1.77;;;1.08;;
23230;SDS011;11784;49.818;8.632;2023-02-28T06:38:17;0.75;;;0.73;;
23230;SDS011;11784;49.818;8.632;2023-02-28T06:40:43;0.68;;;0.60;;
23230;SDS011;11784;49.818;8.632;2023-02-28T06:43:09;1.17;;;0.90;;
23230;SDS011;11784;49.818;8.632;2023-02-28T06:45:41;0.85;;;0.50;;
23230;SDS011;11784;49.818;8.632;2023-02-28T06:48:07;1.10;;;0.68;;
23230;SDS011;11784;49.818;8.632;2023-02-28T06:50:33;0.60;;;0.60;;
23230;SDS011;11784;49.818;8.632;2023-02-28T06:52:58;0.50;;;0.50;;
23230;SDS011;11784;49.818;8.632;2023-02-28T06:55:24;0.47;;;0.47;;
23230;SDS011;11784;49.818;8.632;2023-02-28T06:57:49;0.90;;;0.80;;
23230;SDS011;11784;49.818;8.632;2023-02-28T07:00:15;0.55;;;0.52;;
23230;SDS011;11784;49.818;8.632;2023-02-28T07:02:41;0.55;;;0.55;;
23230;SDS011;11784;49.818;8.632;2023-02-28T07:05:07;0.90;;;0.70;;
23230;SDS011;11784;49.818;8.632;2023-02-28T07:07:33;0.52;;;0.52;;
23230;SDS011;11784;49.818;8.632;2023-02-28T07:09:59;1.40;;;0.95;;
23230;SDS011;11784;49.818;8.632;2023-02-28T07:12:24;1.23;;;0.70;;
23230;SDS011;11784;49.818;8.632;2023-02-28T07:14:50;0.95;;;0.50;;
23230;SDS011;11784;49.818;8.632;2023-02-28T07:17:15;0.50;;;0.50;;
23230;SDS011;11784;49.818;8.632;2023-02-28T07:19:41;1.75;;;0.70;;
23230;SDS011;11784;49.818;8.632;2023-02-28T07:22:07;1.02;;;0.80;;
23230;SDS011;11784;49.818;8.632;2023-02-28T07:24:32;1.13;;;0.63;;
23230;SDS011;11784;49.818;8.632;2023-02-28T07:26:58;0.80;;;0.70;;
23230;SDS011;11784;49.818;8.632;2023-02-28T07:29:24;0.93;;;0.65;;
23230;SDS011;11784;49.818;8.632;2023-02-28T07:31:50;0.85;;;0.70;;
23230;SDS011;11784;49.818;8.632;2023-02-28T07:34:18;0.63;;;0.60;;
23230;SDS011;11784;49.818;8.632;2023-02-28T07:36:44;1.00;;;0.90;;
23230;SDS011;11784;49.818;8.632;2023-02-28T07:39:09;0.93;;;0.60;;
23230;SDS011;11784;49.818;8.632;2023-02-28T07:41:35;1.55;;;0.82;;
23230;SDS011;11784;49.818;8.632;2023-02-28T07:44:07;1.10;;;0.80;;
23230;SDS011;11784;49.818;8.632;2023-02-28T07:46:36;0.70;;;0.55;;
23230;SDS011;11784;49.818;8.632;2023-02-28T07:49:02;0.63;;;0.55;;
23230;SDS011;11784;49.818;8.632;2023-02-28T07:51:28;2.13;;;0.85;;
23230;SDS011;11784;49.818;8.632;2023-02-28T07:53:54;0.80;;;0.60;;
23230;SDS011;11784;49.818;8.632;2023-02-28T07:56:20;0.85;;;0.80;;
23230;SDS011;11784;49.818;8.632;2023-02-28T07:58:46;1.00;;;0.80;;
23230;SDS011;11784;49.818;8.632;2023-02-28T08:01:12;0.80;;;0.70;;
23230;SDS011;11784;49.818;8.632;2023-02-28T08:03:38;0.95;;;0.73;;
23230;SDS011;11784;49.818;8.632;2023-02-28T08:06:04;2.08;;;0.70;;
23230;SDS011;11784;49.818;8.632;2023-02-28T08:08:31;1.00;;;0.90;;
23230;SDS011;11784;49.818;8.632;2023-02-28T08:11:00;2.40;;;0.77;;
23230;SDS011;11784;49.818;8.632;2023-02-28T08:13:28;4.50;;;1.05;;
23230;SDS011;11784;49.818;8.632;2023-02-28T08:15:54;3.20;;;0.65;;
23230;SDS011;11784;49.818;8.632;2023-02-28T08:18:20;1.05;;;0.80;;
23230;SDS011;11784;49.818;8.632;2023-02-28T08:20:47;2.13;;;1.13;;
23230;SDS011;11784;49.818;8.632;2023-02-28T08:23:12;1.27;;;0.82;;
23230;SDS011;11784;49.818;8.632;2023-02-28T08:25:38;1.42;;;0.90;;
23230;SDS011;11784;49.818;8.632;2023-02-28T08:28:04;1.77;;;1.00;;
23230;SDS011;11784;49.818;8.632;2023-02-28T08:30:29;3.92;;;1.13;;
23230;SDS011;11784;49.818;8.632;2023-02-28T08:32:55;2.95;;;1.23;;
23230;SDS011;11784;49.818;8.632;2023-02-28T08:35:21;1.35;;;0.98;;
23230;SDS011;11784;49.818;8.632;2023-02-28T08:37:47;2.45;;;1.13;;
23230;SDS011;11784;49.818;8.632;2023-02-28T08:40:14;2.50;;;1.00;;
23230;SDS011;11784;49.818;8.632;2023-02-28T08:42:43;0.90;;;0.80;;
23230;SDS011;11784;49.818;8.632;2023-02-28T08:45:09;1.27;;;0.82;;
23230;SDS011;11784;49.818;8.632;2023-02-28T08:47:35;0.50;;;0.43;;
23230;SDS011;11784;49.818;8.632;2023-02-28T08:50:01;2.88;;;1.45;;
23230;SDS011;11784;49.818;8.632;2023-02-28T08:52:26;2.92;;;1.25;;
23230;SDS011;11784;49.818;8.632;2023-02-28T08:54:52;3.60;;;1.30;;
23230;SDS011;11784;49.818;8.632;2023-02-28T08:57:17;1.70;;;0.93;;
23230;SDS011;11784;49.818;8.632;2023-02-28T08:59:43;2.92;;;1.20;;
23230;SDS011;11784;49.818;8.632;2023-02-28T09:02:10;2.60;;;1.45;;
23230;SDS011;11784;49.818;8.632;2023-02-28T09:04:38;6.05;;;2.17;;
23230;SDS011;11784;49.818;8.632;2023-02-28T09:07:03;2.55;;;1.33;;
23230;SDS011;11784;49.818;8.632;2023-02-28T09:09:29;2.17;;;1.02;;
23230;SDS011;11784;49.818;8.632;2023-02-28T09:11:55;3.00;;;1.40;;
23230;SDS011;11784;49.818;8.632;2023-02-28T09:14:21;2.38;;;1.33;;
23230;SDS011;11784;49.818;8.632;2023-02-28T09:16:46;2.08;;;1.10;;
23230;SDS011;11784;49.818;8.632;2023-02-28T09:19:12;2.10;;;1.45;;
23230;SDS011;11784;49.818;8.632;2023-02-28T09:21:38;3.70;;;1.98;;
23230;SDS011;11784;49.818;8.632;2023-02-28T09:24:04;3.10;;;1.38;;
23230;SDS011;11784;49.818;8.632;2023-02-28T09:26:29;5.25;;;1.60;;
23230;SDS011;11784;49.818;8.632;2023-02-28T09:28:55;3.00;;;1.20;;
23230;SDS011;11784;49.818;8.632;2023-02-28T09:31:25;2.60;;;1.65;;
23230;SDS011;11784;49.818;8.632;2023-02-28T09:33:53;1.92;;;1.33;;
23230;SDS011;11784;49.818;8.632;2023-02-28T09:36:22;5.05;;;1.27;;
23230;SDS011;11784;49.818;8.632;2023-02-28T09:38:49;2.53;;;1.33;;
23230;SDS011;11784;49.818;8.632;2023-02-28T09:41:19;2.20;;;1.42;;
23230;SDS011;11784;49.818;8.632;2023-02-28T09:43:47;3.55;;;1.65;;
23230;SDS011;11784;49.818;8.632;2023-02-28T09:48:53;2.10;;;1.70;;
23230;SDS011;11784;49.818;8.632;2023-02-28T09:51:28;2.75;;;1.70;;
23230;SDS011;11784;49.818;8.632;2023-02-28T09:54:00;2.70;;;1.30;;
23230;SDS011;11784;49.818;8.632;2023-02-28T09:56:28;2.33;;;1.60;;
23230;SDS011;11784;49.818;8.632;2023-02-28T09:59:01;1.70;;;1.10;;
23230;SDS011;11784;49.818;8.632;2023-02-28T10:01:39;3.80;;;1.67;;
23230;SDS011;11784;49.818;8.632;2023-02-28T11:11:51;2.28;;;1.30;;
23230;SDS011;11784;49.818;8.632;2023-02-28T11:16:48;1.80;;;1.23;;
23230;SDS011;11784;49.818;8.632;2023-02-28T11:19:35;3.80;;;1.63;;
23230;SDS011;11784;49.818;8.632;2023-02-28T11:22:06;3.92;;;1.92;;
23230;SDS011;11784;49.818;8.632;2023-02-28T11:24:35;3.97;;;1.60;;
23230;SDS011;11784;49.818;8.632;2023-02-28T11:27:11;3.13;;;1.45;;
23230;SDS011;11784;49.818;8.632;2023-02-28T11:29:55;2.88;;;1.70;;
23230;SDS011;11784;49.818;8.632;2023-02-28T11:32:24;5.30;;;1.60;;
23230;SDS011;11784;49.818;8.632;2023-02-28T11:37:36;2.70;;;1.67;;
23230;SDS011;11784;49.818;8.632;2023-02-28T11:40:08;5.45;;;1.90;;
23230;SDS011;11784;49.818;8.632;2023-02-28T11:42:45;2.63;;;1.70;;
23230;SDS011;11784;49.818;8.632;2023-02-28T11:45:39;4.70;;;2.00;;
23230;SDS011;11784;49.818;8.632;2023-02-28T11:48:28;5.57;;;1.70;;
23230;SDS011;11784;49.818;8.632;2023-02-28T11:51:06;4.60;;;2.08;;
23230;SDS011;11784;49.818;8.632;2023-02-28T11:56:33;3.83;;;1.80;;
23230;SDS011;11784;49.818;8.632;2023-02-28T12:04:24;4.18;;;1.58;;
23230;SDS011;11784;49.818;8.632;2023-02-28T12:07:11;2.22;;;1.30;;
23230;SDS011;11784;49.818;8.632;2023-02-28T12:10:02;4.30;;;2.30;;
23230;SDS011;11784;49.818;8.632;2023-02-28T12:18:40;2.42;;;1.48;;
23230;SDS011;11784;49.818;8.632;2023-02-28T12:27:02;3.35;;;2.10;;
23230;SDS011;11784;49.818;8.632;2023-02-28T12:29:58;5.68;;;2.25;;
23230;SDS011;11784;49.818;8.632;2023-02-28T12:32:49;3.85;;;1.67;;
23230;SDS011;11784;49.818;8.632;2023-02-28T12:35:23;3.45;;;1.90;;
23230;SDS011;11784;49.818;8.632;2023-02-28T12:37:57;7.68;;;2.55;;
23230;SDS011;11784;49.818;8.632;2023-02-28T12:40:54;2.95;;;1.90;;
23230;SDS011;11784;49.818;8.632;2023-02-28T12:43:27;3.80;;;1.92;;
23230;SDS011;11784;49.818;8.632;2023-02-28T12:46:00;3.55;;;2.10;;
23230;SDS011;11784;49.818;8.632;2023-02-28T12:48:43;7.53;;;2.35;;
23230;SDS011;11784;49.818;8.632;2023-02-28T12:51:12;4.65;;;2.08;;
23230;SDS011;11784;49.818;8.632;2023-02-28T12:56:53;3.42;;;1.80;;
23230;SDS011;11784;49.818;8.632;2023-02-28T12:59:37;3.58;;;1.92;;
23230;SDS011;11784;49.818;8.632;2023-02-28T13:05:07;3.40;;;1.73;;
23230;SDS011;11784;49.818;8.632;2023-02-28T13:10:38;3.90;;;2.53;;
23230;SDS011;11784;49.818;8.632;2023-02-28T13:13:06;3.80;;;1.58;;
23230;SDS011;11784;49.818;8.632;2023-02-28T13:15:38;3.55;;;1.70;;
23230;SDS011;11784;49.818;8.632;2023-02-28T13:18:18;3.20;;;1.70;;
23230;SDS011;11784;49.818;8.632;2023-02-28T13:21:04;3.10;;;1.67;;
23230;SDS011;11784;49.818;8.632;2023-02-28T13:26:04;3.95;;;2.10;;
23230;SDS011;11784;49.818;8.632;2023-02-28T13:31:14;4.53;;;2.25;;
23230;SDS011;11784;49.818;8.632;2023-02-28T13:34:04;2.55;;;1.48;;
23230;SDS011;11784;49.818;8.632;2023-02-28T13:36:37;4.20;;;2.20;;
23230;SDS011;11784;49.818;8.632;2023-02-28T13:39:03;2.80;;;1.98;;
23230;SDS011;11784;49.818;8.632;2023-02-28T13:42:22;3.20;;;2.13;;
23230;SDS011;11784;49.818;8.632;2023-02-28T13:47:29;3.95;;;1.83;;
23230;SDS011;11784;49.818;8.632;2023-02-28T13:58:37;2.78;;;1.77;;
23230;SDS011;11784;49.818;8.632;2023-02-28T14:01:22;3.55;;;1.75;;
23230;SDS011;11784;49.818;8.632;2023-02-28T14:06:50;3.28;;;2.00;;
23230;SDS011;11784;49.818;8.632;2023-02-28T14:09:25;3.33;;;2.00;;
23230;SDS011;11784;49.818;8.632;2023-02-28T14:11:53;6.88;;;2.00;;
23230;SDS011;11784;49.818;8.632;2023-02-28T14:17:03;2.35;;;1.50;;
23230;SDS011;11784;49.818;8.632;2023-02-28T14:19:37;3.67;;;1.92;;
23230;SDS011;11784;49.818;8.632;2023-02-28T14:30:10;3.10;;;1.67;;
23230;SDS011;11784;49.818;8.632;2023-02-28T14:33:05;3.90;;;1.95;;
23230;SDS011;11784;49.818;8.632;2023-02-28T14:36:13;3.55;;;2.08;;
23230;SDS011;11784;49.818;8.632;2023-02-28T14:43:49;5.72;;;2.58;;
23230;SDS011;11784;49.818;8.632;2023-02-28T14:46:20;4.80;;;2.20;;
23230;SDS011;11784;49.818;8.632;2023-02-28T14:48:48;2.90;;;1.58;;
23230;SDS011;11784;49.818;8.632;2023-02-28T14:51:19;3.47;;;2.08;;
23230;SDS011;11784;49.818;8.632;2023-02-28T14:53:47;3.90;;;1.73;;
23230;SDS011;11784;49.818;8.632;2023-02-28T14:56:22;5.05;;;2.13;;
23230;SDS011;11784;49.818;8.632;2023-02-28T14:58:52;2.80;;;1.83;;
23230;SDS011;11784;49.818;8.632;2023-02-28T15:01:21;4.60;;;2.17;;
23230;SDS011;11784;49.818;8.632;2023-02-28T15:03:48;2.90;;;1.77;;
23230;SDS011;11784;49.818;8.632;2023-02-28T15:06:22;3.00;;;1.92;;
23230;SDS011;11784;49.818;8.632;2023-02-28T15:09:01;3.83;;;1.95;;
23230;SDS011;11784;49.818;8.632;2023-02-28T15:11:38;4.22;;;2.30;;
23230;SDS011;11784;49.818;8.632;2023-02-28T15:14:05;3.15;;;2.17;;
23230;SDS011;11784;49.818;8.632;2023-02-28T15:16:34;3.05;;;1.90;;
23230;SDS011;11784;49.818;8.632;2023-02-28T15:19:26;4.50;;;2.10;;
23230;SDS011;11784;49.818;8.632;2023-02-28T15:21:55;4.45;;;1.67;;
23230;SDS011;11784;49.818;8.632;2023-02-28T15:27:12;4.80;;;1.85;;
23230;SDS011;11784;49.818;8.632;2023-02-28T15:29:42;3.03;;;1.67;;
23230;SDS011;11784;49.818;8.632;2023-02-28T15:37:54;3.70;;;1.88;;
23230;SDS011;11784;49.818;8.632;2023-02-28T15:40:29;3.58;;;1.88;;
23230;SDS011;11784;49.818;8.632;2023-02-28T15:43:04;3.25;;;2.10;;
23230;SDS011;11784;49.818;8.632;2023-02-28T15:45:33;4.60;;;1.83;;
23230;SDS011;11784;49.818;8.632;2023-02-28T15:48:03;3.10;;;1.70;;
23230;SDS011;11784;49.818;8.632;2023-02-28T15:50:40;4.78;;;1.88;;
23230;SDS011;11784;49.818;8.632;2023-02-28T15:53:09;3.90;;;2.20;;
23230;SDS011;11784;49.818;8.632;2023-02-28T15:55:38;2.95;;;1.52;;
23230;SDS011;11784;49.818;8.632;2023-02-28T15:58:04;2.40;;;1.40;;
23230;SDS011;11784;49.818;8.632;2023-02-28T16:00:31;3.28;;;1.60;;
23230;SDS011;11784;49.818;8.632;2023-02-28T16:02:57;3.25;;;1.88;;
23230;SDS011;11784;49.818;8.632;2023-02-28T16:05:25;4.00;;;1.50;;
23230;SDS011;11784;49.818;8.632;2023-02-28T16:07:53;3.08;;;1.67;;
23230;SDS011;11784;49.818;8.632;2023-02-28T16:10:24;4.50;;;1.80;;
23230;SDS011;11784;49.818;8.632;2023-02-28T16:12:52;3.30;;;1.70;;
23230;SDS011;11784;49.818;8.632;2023-02-28T16:15:22;3.00;;;1.73;;
23230;SDS011;11784;49.818;8.632;2023-02-28T16:17:54;4.78;;;1.77;;
23230;SDS011;11784;49.818;8.632;2023-02-28T16:20:25;3.13;;;2.25;;
23230;SDS011;11784;49.818;8.632;2023-02-28T16:22:52;3.63;;;1.80;;
23230;SDS011;11784;49.818;8.632;2023-02-28T16:25:20;3.58;;;1.88;;
23230;SDS011;11784;49.818;8.632;2023-02-28T16:27:51;2.78;;;1.42;;
23230;SDS011;11784;49.818;8.632;2023-02-28T16:30:20;4.93;;;2.03;;
23230;SDS011;11784;49.818;8.632;2023-02-28T16:32:47;2.70;;;1.60;;
23230;SDS011;11784;49.818;8.632;2023-02-28T16:35:14;2.60;;;1.38;;
23230;SDS011;11784;49.818;8.632;2023-02-28T16:37:40;3.92;;;1.90;;
23230;SDS011;11784;49.818;8.632;2023-02-28T16:40:06;4.18;;;1.88;;
23230;SDS011;11784;49.818;8.632;2023-02-28T16:42:39;5.00;;;2.22;;
23230;SDS011;11784;49.818;8.632;2023-02-28T16:45:05;4.22;;;2.00;;
23230;SDS011;11784;49.818;8.632;2023-02-28T16:47:35;3.55;;;1.98;;
23230;SDS011;11784;49.818;8.632;2023-02-28T16:50:01;2.92;;;1.80;;
23230;SDS011;11784;49.818;8.632;2023-02-28T16:52:26;4.97;;;1.80;;
23230;SDS011;11784;49.818;8.632;2023-02-28T16:54:52;5.75;;;2.40;;
23230;SDS011;11784;49.818;8.632;2023-02-28T16:57:22;6.88;;;2.78;;
23230;SDS011;11784;49.818;8.632;2023-02-28T16:59:49;5.10;;;2.13;;
23230;SDS011;11784;49.818;8.632;2023-02-28T17:02:16;3.05;;;1.73;;
23230;SDS011;11784;49.818;8.632;2023-02-28T17:04:44;4.53;;;1.83;;
23230;SDS011;11784;49.818;8.632;2023-02-28T17:07:13;3.55;;;2.00;;
23230;SDS011;11784;49.818;8.632;2023-02-28T17:09:43;6.53;;;2.28;;
23230;SDS011;11784;49.818;8.632;2023-02-28T17:12:09;2.40;;;1.70;;
23230;SDS011;11784;49.818;8.632;2023-02-28T17:14:36;4.03;;;2.35;;
23230;SDS011;11784;49.818;8.632;2023-02-28T17:17:03;2.95;;;1.58;;
23230;SDS011;11784;49.818;8.632;2023-02-28T17:19:30;11.90;;;2.25;;
23230;SDS011;11784;49.818;8.632;2023-02-28T17:21:55;5.95;;;2.47;;
23230;SDS011;11784;49.818;8.632;2023-02-28T17:24:21;6.22;;;2.22;;
23230;SDS011;11784;49.818;8.632;2023-02-28T17:26:46;3.38;;;2.10;;
23230;SDS011;11784;49.818;8.632;2023-02-28T17:29:19;3.63;;;2.00;;
23230;SDS011;11784;49.818;8.632;2023-02-28T17:31:46;8.05;;;2.40;;
23230;SDS011;11784;49.818;8.632;2023-02-28T17:34:12;5.05;;;2.35;;
23230;SDS011;11784;49.818;8.632;2023-02-28T17:36:43;3.40;;;1.98;;
23230;SDS011;11784;49.818;8.632;2023-02-28T17:39:11;8.38;;;2.97;;
23230;SDS011;11784;49.818;8.632;2023-02-28T17:41:44;3.83;;;1.92;;
23230;SDS011;11784;49.818;8.632;2023-02-28T17:44:10;3.08;;;1.60;;
23230;SDS011;11784;49.818;8.632;2023-02-28T17:46:35;3.42;;;1.70;;
23230;SDS011;11784;49.818;8.632;2023-02-28T17:49:01;3.15;;;1.98;;
23230;SDS011;11784;49.818;8.632;2023-02-28T17:51:27;5.45;;;2.35;;
23230;SDS011;11784;49.818;8.632;2023-02-28T17:53:52;3.50;;;2.22;;
23230;SDS011;11784;49.818;8.632;2023-02-28T17:56:19;5.13;;;2.33;;
23230;SDS011;11784;49.818;8.632;2023-02-28T17:58:46;3.72;;;1.80;;